createdAt,value
2022-12-16T00:04:46.379Z,0
2022-12-16T00:11:09.463Z,0
2022-12-16T00:17:29.476Z,0
2022-12-16T00:23:52.564Z,0
2022-12-16T00:30:12.479Z,0
2022-12-16T00:36:35.575Z,0
2022-12-16T00:42:55.433Z,0
2022-12-16T00:49:18.383Z,0
2022-12-16T00:55:38.348Z,0
2022-12-16T01:02:01.522Z,0
2022-12-16T01:08:21.481Z,0
2022-12-16T01:14:44.363Z,0
2022-12-16T01:21:04.404Z,0
2022-12-16T01:27:27.386Z,0
2022-12-16T01:33:47.477Z,0
2022-12-16T01:40:10.466Z,0
2022-12-16T01:46:30.384Z,0
2022-12-16T01:52:53.355Z,0
2022-12-16T01:59:13.387Z,0
2022-12-16T02:05:36.364Z,0
2022-12-16T02:11:56.449Z,0
2022-12-16T02:18:19.381Z,0
2022-12-16T02:24:39.372Z,0
2022-12-16T02:31:02.399Z,0
2022-12-16T02:37:22.348Z,0
2022-12-16T02:43:45.317Z,0
2022-12-16T02:50:05.408Z,0
2022-12-16T02:56:28.361Z,0
2022-12-16T03:02:48.462Z,0
2022-12-16T03:09:11.498Z,0
2022-12-16T03:15:31.332Z,0
2022-12-16T03:21:54.340Z,0
2022-12-16T03:28:14.355Z,0
2022-12-16T03:34:37.431Z,0
2022-12-16T03:40:57.369Z,0
2022-12-16T03:47:23.848Z,0
2022-12-16T03:53:40.309Z,0
2022-12-16T04:00:03.349Z,0
2022-12-16T04:24:02.311Z,0
2022-12-16T04:30:22.446Z,0
2022-12-16T04:36:45.364Z,0
2022-12-16T04:43:05.546Z,0
2022-12-16T04:49:28.355Z,0
2022-12-16T04:55:48.411Z,0
2022-12-16T05:02:11.508Z,0
2022-12-16T05:08:31.373Z,0
2022-12-16T05:14:54.400Z,0
2022-12-16T05:21:14.517Z,0
2022-12-16T05:27:37.317Z,0
2022-12-16T05:33:57.326Z,0
2022-12-16T05:40:20.359Z,0
2022-12-16T05:46:40.533Z,0
2022-12-16T05:53:03.404Z,0
2022-12-16T05:59:23.356Z,0
2022-12-16T06:05:46.311Z,0
2022-12-16T06:12:06.312Z,0
2022-12-16T06:18:29.442Z,0
2022-12-16T06:24:49.314Z,0
2022-12-16T06:31:12.436Z,0
2022-12-16T06:37:32.449Z,0
2022-12-16T06:43:55.388Z,0
2022-12-16T06:50:15.427Z,0
2022-12-16T06:56:38.403Z,0
2022-12-16T07:02:58.449Z,2
2022-12-16T07:09:21.329Z,4
2022-12-16T07:15:41.515Z,9
2022-12-16T07:22:04.374Z,19
2022-12-16T07:28:24.318Z,34
2022-12-16T07:34:50.218Z,56
2022-12-16T07:41:07.369Z,83
2022-12-16T07:47:30.381Z,111
2022-12-16T07:53:50.390Z,143
2022-12-16T08:00:13.330Z,184
2022-12-16T08:06:37.279Z,229
2022-12-16T08:12:56.368Z,284
2022-12-16T08:19:16.316Z,325
2022-12-16T08:25:39.348Z,387
2022-12-16T08:31:59.397Z,439
2022-12-16T08:38:22.399Z,484
2022-12-16T08:44:42.369Z,536
2022-12-16T08:51:05.457Z,608
2022-12-16T08:57:25.566Z,660
2022-12-16T09:03:48.441Z,746
2022-12-16T09:10:08.356Z,845
2022-12-16T09:33:32.703Z,1143
2022-12-16T09:39:55.335Z,1189
2022-12-16T09:46:15.402Z,1276
2022-12-16T09:52:38.374Z,1375
2022-12-16T09:58:58.394Z,1443
2022-12-16T10:05:21.385Z,1508
2022-12-16T10:11:41.402Z,1626
2022-12-16T10:18:04.625Z,1697
2022-12-16T10:24:24.363Z,1785
2022-12-16T10:30:47.445Z,1855
2022-12-16T10:37:11.713Z,1948
2022-12-16T10:43:30.355Z,2020
2022-12-16T10:49:53.901Z,2123
2022-12-16T10:56:13.436Z,2165
2022-12-16T11:02:33.616Z,2179
2022-12-16T11:08:56.423Z,2248
2022-12-16T11:15:31.718Z,2367
2022-12-16T11:21:39.341Z,2399
2022-12-16T11:27:59.589Z,2359
2022-12-16T11:34:22.366Z,2450
2022-12-16T11:40:42.585Z,2477
2022-12-16T11:47:05.382Z,2518
2022-12-16T11:53:25.449Z,2605
2022-12-16T11:59:48.508Z,2563
2022-12-16T12:06:08.345Z,2589
2022-12-16T12:12:31.339Z,2652
2022-12-16T12:18:51.309Z,2724
2022-12-16T12:25:14.670Z,2728
2022-12-16T12:31:34.385Z,2759
2022-12-16T12:37:57.333Z,2770
2022-12-16T12:44:17.422Z,2764
2022-12-16T12:50:40.340Z,2691
2022-12-16T12:57:00.547Z,2625
2022-12-16T13:03:23.565Z,2711
2022-12-16T13:09:43.458Z,2600
2022-12-16T13:16:06.375Z,2416
2022-12-16T13:22:26.416Z,2242
2022-12-16T13:28:49.551Z,1969
2022-12-16T13:35:09.352Z,1426
2022-12-16T13:41:32.553Z,1083
2022-12-16T13:47:52.349Z,981
2022-12-16T13:54:15.492Z,953
2022-12-16T14:00:36.674Z,892
2022-12-16T14:06:58.365Z,883
2022-12-16T14:13:18.553Z,810
2022-12-16T14:19:41.444Z,654
2022-12-16T14:36:06.096Z,379
2022-12-16T14:42:28.843Z,323
2022-12-16T14:48:49.993Z,260
2022-12-16T14:55:11.418Z,214
2022-12-16T15:01:31.498Z,170
2022-12-16T15:07:54.388Z,130
2022-12-16T15:14:14.645Z,98
2022-12-16T15:20:37.372Z,68
2022-12-16T15:26:57.418Z,44
2022-12-16T15:33:20.420Z,25
2022-12-16T15:39:40.418Z,13
2022-12-16T15:46:03.474Z,6
2022-12-16T15:52:23.472Z,2
2022-12-16T15:58:46.628Z,1
2022-12-16T16:05:06.492Z,0
2022-12-16T16:11:29.515Z,0
2022-12-16T16:17:49.513Z,0
2022-12-16T16:24:12.362Z,0
2022-12-16T16:30:32.501Z,0
2022-12-16T16:36:55.371Z,0
2022-12-16T16:43:15.363Z,0
2022-12-16T16:49:38.520Z,0
2022-12-16T16:55:58.362Z,0
2022-12-16T17:02:21.640Z,0
2022-12-16T17:08:41.387Z,0
2022-12-16T17:15:04.411Z,0
2022-12-16T17:22:18.194Z,0
2022-12-16T17:28:41.355Z,0
2022-12-16T17:35:01.436Z,0
2022-12-16T17:41:24.323Z,0
2022-12-16T17:47:44.539Z,0
2022-12-16T17:54:14.668Z,0
2022-12-16T18:00:27.559Z,0
2022-12-16T18:06:50.429Z,0
2022-12-16T18:13:10.352Z,0
2022-12-16T18:19:33.452Z,0
2022-12-16T18:25:53.425Z,0
2022-12-16T18:32:16.483Z,0
2022-12-16T18:38:36.366Z,0
2022-12-16T18:45:01.379Z,0
2022-12-16T18:51:19.353Z,0
2022-12-16T18:57:42.373Z,0
2022-12-16T19:04:02.372Z,0
2022-12-16T19:26:32.381Z,0
2022-12-16T19:32:55.978Z,0
2022-12-16T19:39:15.361Z,0
2022-12-16T19:45:38.442Z,0
2022-12-16T19:51:58.453Z,0
2022-12-16T19:58:21.385Z,0
2022-12-16T20:04:41.424Z,0
2022-12-16T20:11:04.548Z,0
2022-12-16T20:17:24.349Z,0
2022-12-16T20:23:48.009Z,0
2022-12-16T20:30:07.438Z,0
2022-12-16T20:36:30.370Z,0
2022-12-16T20:42:50.521Z,0
2022-12-16T20:49:13.366Z,0
2022-12-16T20:55:33.410Z,0
2022-12-16T21:08:16.476Z,0
2022-12-16T21:14:39.394Z,0
2022-12-16T21:14:42.828Z,0
2022-12-16T21:20:59.532Z,0
2022-12-16T21:27:22.416Z,0
2022-12-16T21:33:43.994Z,0
2022-12-16T21:40:06.454Z,0
2022-12-16T21:46:26.477Z,0
2022-12-16T21:52:49.373Z,0
2022-12-16T21:59:09.363Z,0
2022-12-16T22:05:32.547Z,0
2022-12-16T22:11:52.452Z,0
2022-12-16T22:18:15.518Z,0
2022-12-16T22:24:35.358Z,0
2022-12-16T22:30:58.418Z,0
2022-12-16T22:37:18.410Z,0
2022-12-16T22:43:41.315Z,0
2022-12-16T22:50:01.420Z,0
2022-12-16T22:56:24.521Z,0
2022-12-16T23:20:38.395Z,0
2022-12-16T23:26:58.329Z,0
2022-12-16T23:33:21.379Z,0
2022-12-16T23:39:41.661Z,0
2022-12-16T23:46:04.631Z,0
2022-12-16T23:52:24.483Z,0
2022-12-16T23:58:47.457Z,0
